17 mei 2022

Tijd Code Weer Temp. Zicht Wolken Wind METAR/SPECI
16:30
V
31 °C 10 km+ - 140°   140° 5 kt METAR LFCK 171430Z AUTO 14005KT 090V180 CAVOK 31/13 Q1018 NOSIG
16:00
V
31 °C 10 km+ - 130°   130° 6 kt METAR LFCK 171400Z AUTO 13006KT 060V170 CAVOK 31/14 Q1018 NOSIG
15:30
V
31 °C 10 km+ - Var   Var 3 kt METAR LFCK 171330Z AUTO VRB03KT CAVOK 31/13 Q1018 NOSIG
15:00
V
31 °C 10 km+ - 140°   140° 6 kt METAR LFCK 171300Z AUTO 14006KT 090V200 CAVOK 31/13 Q1018 NOSIG
14:30
V
31 °C 10 km+ - 120°   120° 6 kt METAR LFCK 171230Z AUTO 12006KT 030V190 CAVOK 31/14 Q1018 NOSIG
14:00
V
30 °C 10 km+ - 140°   140° 8 kt METAR LFCK 171200Z AUTO 14008KT 100V190 CAVOK 30/14 Q1018 NOSIG
13:30
V
30 °C 10 km+ - 130°   130° 8 kt METAR LFCK 171130Z AUTO 13008KT 080V160 CAVOK 30/14 Q1018 NOSIG
13:00
V
30 °C 10 km+ - 120°   120° 11 kt METAR LFCK 171100Z AUTO 12011KT CAVOK 30/12 Q1019 NOSIG
12:30
V
30 °C 10 km+ - 130°   130° 11 kt METAR LFCK 171030Z AUTO 13011KT CAVOK 30/12 Q1019 NOSIG
12:00
V
29 °C 10 km+ - 130°   130° 11 kt METAR LFCK 171000Z AUTO 13011KT CAVOK 29/14 Q1019 NOSIG
11:30
V
28 °C 10 km+ - 130°   130° 10 kt METAR LFCK 170930Z AUTO 13010KT CAVOK 28/14 Q1019 NOSIG
11:00
V
28 °C 10 km+ - 110°   110° 11 kt METAR LFCK 170900Z AUTO 11011KT CAVOK 28/14 Q1019 NOSIG
10:30
V
26 °C 10 km+ - Var   Var 5 kt METAR LFCK 170830Z AUTO VRB05KT CAVOK 26/15 Q1019 NOSIG
10:00
V
24 °C 10 km+ - Var   Var 2 kt METAR LFCK 170800Z AUTO VRB02KT CAVOK 24/17 Q1019 NOSIG
09:30
V
22 °C 10 km+ - Var   Var 1 kt METAR LFCK 170730Z AUTO VRB01KT CAVOK 22/16 Q1020 NOSIG
09:00
V
21 °C 10 km+ - Var   000° 0 kt METAR LFCK 170700Z AUTO 00000KT CAVOK 21/15 Q1020 BECMG 14010KT
08:30
V
19 °C 10 km+ - Var   000° 0 kt METAR LFCK 170630Z AUTO 00000KT CAVOK 19/15 Q1020 BECMG 14010KT
08:00
V
18 °C 10 km+ - Var   Var 1 kt METAR LFCK 170600Z AUTO VRB01KT CAVOK 18/15 Q1020 NOSIG
07:30
V
18 °C 10 km+ - 130°   130° 3 kt METAR LFCK 170530Z AUTO 13003KT CAVOK 18/15 Q1020 NOSIG
07:00
V
16 °C 10 km+ - 130°   130° 4 kt METAR LFCK 170500Z AUTO 13004KT CAVOK 16/14 Q1019
06:30
V
16 °C 10 km+ - 170°   170° 3 kt METAR LFCK 170430Z AUTO 17003KT CAVOK 16/14 Q1019
06:00
V
16 °C 10 km+ - 120°   120° 3 kt METAR LFCK 170400Z AUTO 12003KT CAVOK 16/14 Q1019
05:30
V
16 °C 10 km+ - 110°   110° 5 kt METAR LFCK 170330Z AUTO 11005KT CAVOK 16/14 Q1019
05:00
V
16 °C 10 km+ - 100°   100° 5 kt METAR LFCK 170300Z AUTO 10005KT CAVOK 16/14 Q1019
04:30
V
17 °C 10 km+ - 110°   110° 3 kt METAR LFCK 170230Z AUTO 11003KT 080V140 CAVOK 17/14 Q1019
04:00
V
16 °C 10 km+ - Var   Var 3 kt METAR LFCK 170200Z AUTO VRB03KT CAVOK 16/15 Q1019
03:30
V
16 °C 10 km+ - 120°   120° 4 kt METAR LFCK 170130Z AUTO 12004KT CAVOK 16/15 Q1020
03:00
V
17 °C 10 km+ - 130°   130° 3 kt METAR LFCK 170100Z AUTO 13003KT CAVOK 17/15 Q1020
02:30
V
17 °C 10 km+ - 090°   090° 5 kt METAR LFCK 170030Z AUTO 09005KT CAVOK 17/15 Q1020
02:00
V
17 °C 10 km+ - 140°   140° 6 kt METAR LFCK 170000Z AUTO 14006KT CAVOK 17/15 Q1020
01:30
V
18 °C 10 km+ - 140°   140° 5 kt METAR LFCK 162330Z AUTO 14005KT CAVOK 18/15 Q1020
01:00
V
19 °C 10 km+ - 110°   110° 5 kt METAR LFCK 162300Z AUTO 11005KT CAVOK 19/16 Q1020
00:30
V
18 °C 10 km+ - Var   Var 2 kt METAR LFCK 162230Z AUTO VRB02KT CAVOK 18/15 Q1020
00:00
V
19 °C 10 km+ - Var   Var 2 kt METAR LFCK 162200Z AUTO VRB02KT CAVOK 19/16 Q1020

16 mei 2022

Tijd Code Weer Temp. Zicht Wolken Wind METAR/SPECI
23:30
V
21 °C 10 km+ - 140°   140° 7 kt METAR LFCK 162130Z AUTO 14007KT CAVOK 21/16 Q1020
23:00
V
22 °C 10 km+ - 130°   130° 8 kt METAR LFCK 162100Z AUTO 13008KT CAVOK 22/16 Q1020
22:30
V
21 °C 10 km+ - 140°   140° 7 kt METAR LFCK 162030Z AUTO 14007KT CAVOK 21/17 Q1020 NOSIG
22:00
V
21 °C 10 km+ - 130°   130° 5 kt METAR LFCK 162000Z AUTO 13005KT CAVOK 21/16 Q1020 NOSIG
21:30
V
22 °C 10 km+ - 150°   150° 5 kt METAR LFCK 161930Z AUTO 15005KT CAVOK 22/16 Q1020 NOSIG
21:00
V
25 °C 10 km+ - Var   Var 1 kt METAR LFCK 161900Z AUTO VRB01KT CAVOK 25/16 Q1019 NOSIG
20:30
V
27 °C 10 km+ - Var   000° 0 kt METAR LFCK 161830Z AUTO 00000KT CAVOK 27/15 Q1019 NOSIG
20:00
V
27 °C 10 km+ - 260°   260° 2 kt METAR LFCK 161800Z AUTO 26002KT CAVOK 27/15 Q1019 NOSIG
19:30
V
28 °C 10 km+ - Var   Var 2 kt METAR LFCK 161730Z AUTO VRB02KT CAVOK 28/14 Q1019 NOSIG
19:00
V
29 °C 10 km+ - Var   Var 2 kt METAR LFCK 161700Z AUTO VRB02KT CAVOK 29/14 Q1019 NOSIG
18:30
V
28 °C 10 km+ - 300°   300° 4 kt METAR LFCK 161630Z AUTO 30004KT 200V360 CAVOK 28/14 Q1019 NOSIG
18:00
V
28 °C 10 km+ - 290°   290° 6 kt METAR LFCK 161600Z AUTO 29006KT 250V330 CAVOK 28/14 Q1019 NOSIG
17:30
V
28 °C 10 km+ - 280°   280° 4 kt METAR LFCK 161530Z AUTO 28004KT 240V340 CAVOK 28/15 Q1020 NOSIG
17:00
V
28 °C 10 km+ - 280°   280° 6 kt METAR LFCK 161500Z AUTO 28006KT 230V330 CAVOK 28/14 Q1019 NOSIG
16:30
V
28 °C 10 km+ - 270°   270° 7 kt METAR LFCK 161430Z AUTO 27007KT 180V320 CAVOK 28/15 Q1019 NOSIG
16:00
V
27 °C 10 km+ - 290°   290° 6 kt METAR LFCK 161400Z AUTO 29006KT 230V330 CAVOK 27/14 Q1019 NOSIG
15:30
V
27 °C 10 km+ - 270°   270° 6 kt METAR LFCK 161330Z AUTO 27006KT 230V310 CAVOK 27/15 Q1019 NOSIG
15:00
V
27 °C 10 km+ - 260°   260° 5 kt METAR LFCK 161300Z AUTO 26005KT 220V290 CAVOK 27/14 Q1020 NOSIG
14:30
V
27 °C 10 km+ - 260°   260° 5 kt METAR LFCK 161230Z AUTO 26005KT 200V310 CAVOK 27/15 Q1020 NOSIG
14:00
V
26 °C 10 km+ - Var   Var 4 kt METAR LFCK 161200Z AUTO VRB04KT CAVOK 26/14 Q1020 NOSIG
13:30
V
25 °C 10 km+ - Var   Var 3 kt METAR LFCK 161130Z AUTO VRB03KT CAVOK 25/14 Q1020 NOSIG
13:00
V
24 °C 10 km+ - Var   Var 3 kt METAR LFCK 161100Z AUTO VRB03KT CAVOK 24/14 Q1021 NOSIG
12:30
V
24 °C 10 km+ - 240°   240° 4 kt METAR LFCK 161030Z AUTO 24004KT 160V300 CAVOK 24/13 Q1021 NOSIG
12:00
V
23 °C 10 km+ - 280°   280° 4 kt METAR LFCK 161000Z AUTO 28004KT 220V360 CAVOK 23/13 Q1021 NOSIG
11:30
V
22 °C 10 km+ - 310°   310° 3 kt METAR LFCK 160930Z AUTO 31003KT 260V360 CAVOK 22/12 Q1021 NOSIG
11:00
V
22 °C 10 km+ - Var   Var 3 kt METAR LFCK 160900Z AUTO VRB03KT CAVOK 22/13 Q1021 NOSIG
10:30
V
21 °C 10 km+ - Var   Var 3 kt METAR LFCK 160830Z AUTO VRB03KT CAVOK 21/12 Q1021 NOSIG
10:00
V
21 °C 10 km+ - Var   Var 1 kt METAR LFCK 160800Z AUTO VRB01KT CAVOK 21/12 Q1021 NOSIG
09:30
V
20 °C 10 km+ - 170°   170° 3 kt METAR LFCK 160730Z AUTO 17003KT 110V200 CAVOK 20/13 Q1021 NOSIG
09:00
V
19 °C 10 km+ - Var   Var 2 kt METAR LFCK 160700Z AUTO VRB02KT CAVOK 19/13 Q1020 NOSIG
08:30
V
18 °C 10 km+ - Var   Var 1 kt METAR LFCK 160630Z AUTO VRB01KT CAVOK 18/12 Q1020 NOSIG
08:00
V
17 °C 10 km+ - Var   Var 1 kt METAR LFCK 160600Z AUTO VRB01KT CAVOK 17/13 Q1020 NOSIG
07:30
V
15 °C 10 km+ - 090°   090° 4 kt METAR LFCK 160530Z AUTO 09004KT CAVOK 15/12 Q1019
07:00
V
14 °C 10 km+ - 120°   120° 4 kt METAR LFCK 160500Z AUTO 12004KT 070V140 CAVOK 14/11 Q1019
06:30
V
14 °C 10 km+ - 110°   110° 7 kt METAR LFCK 160430Z AUTO 11007KT CAVOK 14/11 Q1019
06:00
V
13 °C 10 km+ - Var   Var 2 kt METAR LFCK 160400Z AUTO VRB02KT CAVOK 13/10 Q1019
05:30
V
14 °C 10 km+ - 100°   100° 2 kt METAR LFCK 160330Z AUTO 10002KT CAVOK 14/11 Q1019
05:00
V
14 °C 10 km+ - Var   000° 0 kt METAR LFCK 160300Z AUTO 00000KT CAVOK 14/11 Q1019
04:30
V
15 °C 10 km+ - 130°   130° 6 kt METAR LFCK 160230Z AUTO 13006KT CAVOK 15/12 Q1018
04:00
V
16 °C 10 km+ - 190°   190° 6 kt METAR LFCK 160200Z AUTO 19006KT 150V220 CAVOK 16/12 Q1019
03:30
V
16 °C 10 km+ - Var   Var 1 kt METAR LFCK 160130Z AUTO VRB01KT CAVOK 16/12 Q1019
03:00
V
16 °C 10 km+ - 130°   130° 5 kt METAR LFCK 160100Z AUTO 13005KT 100V180 CAVOK 16/12 Q1018
02:30
V
17 °C 10 km+ - 110°   110° 10 kt METAR LFCK 160030Z AUTO 11010KT CAVOK 17/11 Q1018
02:00
V
17 °C 10 km+ - 110°   110° 14 kt METAR LFCK 160000Z AUTO 11014KT CAVOK 17/11 Q1017
01:30
V
17 °C 10 km+ - 120°   120° 11 kt METAR LFCK 152330Z AUTO 12011KT CAVOK 17/10 Q1017
01:00
V
17 °C 10 km+ - 140°   140° 10 kt METAR LFCK 152300Z AUTO 14010KT CAVOK 17/11 Q1018
00:30
V
17 °C 10 km+ - 150°   150° 7 kt METAR LFCK 152230Z AUTO 15007KT CAVOK 17/11 Q1018
00:00
V
19 °C 10 km+ - 110°   110° 7 kt METAR LFCK 152200Z AUTO 11007KT 060V140 CAVOK 19/10 Q1018

15 mei 2022

Tijd Code Weer Temp. Zicht Wolken Wind METAR/SPECI
23:30
V
19 °C 10 km+ - 120°   120° 19 kt METAR LFCK 152130Z AUTO 12019KT CAVOK 19/10 Q1015
23:00
V
19 °C 10 km+ - 110°   110° 24 kt METAR LFCK 152100Z AUTO 11024KT CAVOK 19/09 Q1015 BECMG 13012KT
22:30
V
19 °C 10 km+ - 110°   110° 19 kt METAR LFCK 152030Z AUTO 11019KT CAVOK 19/09 Q1015 TEMPO 11020G30KT
22:00
V
20 °C 10 km+ - 110°   110° 21 34 kt METAR LFCK 152000Z AUTO 11021G34KT CAVOK 20/10 Q1015 NOSIG
21:30
V
20 °C 10 km+ - 120°   120° 24 kt METAR LFCK 151930Z AUTO 12024KT CAVOK 20/10 Q1014 BECMG 11020G30KT
21:00
V
20 °C 10 km+ - 120°   120° 25 37 kt METAR LFCK 151900Z AUTO 12025G37KT CAVOK 20/11 Q1013 NOSIG
20:30
V
21 °C 10 km+ - 120°   120° 26 kt METAR LFCK 151830Z AUTO 12026KT CAVOK 21/11 Q1013 BECMG 11020G30KT
20:00
V
22 °C 10 km+ - 120°   120° 24 kt METAR LFCK 151800Z AUTO 12024KT CAVOK 22/12 Q1013 BECMG 11020G30KT
19:30
V
23 °C 10 km+ - 120°   120° 24 36 kt METAR LFCK 151730Z AUTO 12024G36KT CAVOK 23/12 Q1013 NOSIG
19:00
V
24 °C 10 km+ - 120°   120° 23 kt METAR LFCK 151700Z AUTO 12023KT CAVOK 24/12 Q1013 TEMPO FEW060CB BECMG 12020G30KT
18:30
V
24 °C 10 km+ - 110°   110° 21 32 kt METAR LFCK 151630Z AUTO 11021G32KT CAVOK 24/12 Q1013 TEMPO FEW060CB
18:00
V
25 °C 10 km+ - 110°   110° 23 34 kt METAR LFCK 151600Z AUTO 11023G34KT CAVOK 25/13 Q1013 TEMPO FEW060CB
17:30
V
25 °C 10 km+ - 110°   110° 24 kt METAR LFCK 151530Z AUTO 11024KT CAVOK 25/13 Q1014 TEMPO 14025G40KT FEW060CB
17:00
V
25 °C 10 km+ - 120°   120° 23 34 kt METAR LFCK 151500Z AUTO 12023G34KT CAVOK 25/13 Q1014 TEMPO FEW060CB
Oudere gegevens

Installeer onze app

Gemakkelijke toegang tot al het luchtvaartweer op je mobiele telefoon en tablet.
Met veel functies die niet op de website beschikbaar zijn, zoals offline ondersteuning en een persoonlijke lijst van vliegvelden.